Time;durP1;ratioP1;P1;durP2;ratioP2;P2;SDS_P1;SDS_P2;PMS_P1;PMS_P2;Temp;Humidity;BMP_temperature;BMP_pressure;BME280_temperature;BME280_humidity;BME280_pressure;Samples;Min_cycle;Max_cycle;Signal;HPM_P1;HPM_P2
2023/07/29 00:02:01;;;;;;;3.60;2.10;;;22.50;75.50;;;;;;5033033;28;20095;-63
2023/07/29 00:04:26;;;;;;;4.53;2.22;;;22.50;75.50;;;;;;5032359;28;20041;-63
2023/07/29 00:06:52;;;;;;;3.22;2.30;;;22.50;75.50;;;;;;5031651;28;20401;-63
2023/07/29 00:09:17;;;;;;;3.80;2.00;;;22.50;75.40;;;;;;5032752;28;20117;-63
2023/07/29 00:11:43;;;;;;;4.90;2.20;;;22.40;75.40;;;;;;5031194;28;20128;-63
2023/07/29 00:14:08;;;;;;;4.05;2.30;;;22.50;75.40;;;;;;5030401;28;20489;-62
2023/07/29 00:16:34;;;;;;;3.47;2.05;;;22.50;75.40;;;;;;5030867;28;20049;-62
2023/07/29 00:18:59;;;;;;;3.88;2.13;;;22.50;75.40;;;;;;5032585;28;20045;-61
2023/07/29 00:21:25;;;;;;;3.40;2.13;;;22.50;75.30;;;;;;5031630;28;20050;-62
2023/07/29 00:23:51;;;;;;;3.30;2.10;;;22.50;75.30;;;;;;5030689;28;20562;-62
2023/07/29 00:26:17;;;;;;;4.10;2.10;;;22.40;75.30;;;;;;5032748;28;20045;-62
2023/07/29 00:28:42;;;;;;;3.22;2.00;;;22.50;75.30;;;;;;5031439;28;20041;-62
2023/07/29 00:31:08;;;;;;;3.40;2.15;;;22.40;75.20;;;;;;5032737;28;20045;-62
2023/07/29 00:33:33;;;;;;;4.25;2.38;;;22.40;75.30;;;;;;5032135;28;20037;-62
2023/07/29 00:36:01;;;;;;;4.57;2.13;;;22.40;75.20;;;;;;5030240;28;20041;-62
2023/07/29 00:38:27;;;;;;;3.45;2.17;;;22.40;75.20;;;;;;5032741;28;20045;-62
2023/07/29 00:40:53;;;;;;;3.92;2.40;;;22.40;75.20;;;;;;5030955;28;20042;-62
2023/07/29 00:43:18;;;;;;;3.83;2.17;;;22.40;75.20;;;;;;5032518;28;20136;-62
2023/07/29 00:45:44;;;;;;;4.47;2.45;;;22.40;75.20;;;;;;5030021;28;20038;-62
2023/07/29 00:48:10;;;;;;;3.65;2.20;;;22.40;75.20;;;;;;5014019;28;20046;-62
2023/07/29 00:50:35;;;;;;;3.75;2.20;;;22.40;75.10;;;;;;5030452;28;20076;-62
2023/07/29 00:53:01;;;;;;;3.20;2.13;;;22.40;75.10;;;;;;5016594;28;20030;-62
2023/07/29 00:55:26;;;;;;;3.40;1.90;;;22.40;75.10;;;;;;5019087;28;20103;-62
2023/07/29 00:57:54;;;;;;;4.05;1.95;;;22.40;75.10;;;;;;5015060;28;20048;-62
2023/07/29 01:00:20;;;;;;;3.63;2.35;;;22.40;75.10;;;;;;4999040;28;20052;-62
2023/07/29 01:02:46;;;;;;;3.70;2.33;;;22.30;75.70;;;;;;5015543;28;20432;-61
2023/07/29 01:05:15;;;;;;;3.55;2.15;;;22.40;75.00;;;;;;5016313;28;20105;-62
2023/07/29 01:07:54;;;;;;;3.47;2.10;;;22.40;75.00;;;;;;4998365;28;20048;-62
2023/07/29 01:10:40;;;;;;;3.35;1.90;;;22.40;74.90;;;;;;5014144;28;20504;-62
2023/07/29 01:13:27;;;;;;;3.03;1.98;;;22.40;74.90;;;;;;5015288;28;20078;-62
2023/07/29 01:15:58;;;;;;;3.50;2.13;;;22.40;74.90;;;;;;5015616;28;20393;-62
2023/07/29 01:18:29;;;;;;;3.22;2.15;;;22.40;74.90;;;;;;5016188;28;20050;-62
2023/07/29 01:21:03;;;;;;;2.95;2.05;;;22.40;74.90;;;;;;5014646;28;20092;-62
2023/07/29 01:23:32;;;;;;;4.13;2.35;;;22.30;74.80;;;;;;4997777;28;20062;-62
2023/07/29 01:25:57;;;;;;;3.75;2.00;;;22.40;74.90;;;;;;5014245;28;20056;-62
2023/07/29 01:28:23;;;;;;;2.67;2.00;;;22.30;74.90;;;;;;5014583;28;20037;-62
2023/07/29 01:30:50;;;;;;;3.38;2.20;;;22.40;74.90;;;;;;5013481;28;20096;-62
2023/07/29 01:33:26;;;;;;;2.35;1.80;;;22.30;74.80;;;;;;5015633;28;20279;-62
2023/07/29 01:36:03;;;;;;;3.25;2.13;;;22.30;74.80;;;;;;5015516;28;20042;-62
2023/07/29 01:38:34;;;;;;;3.58;2.22;;;22.30;74.90;;;;;;4998810;28;20472;-63
2023/07/29 01:41:03;;;;;;;4.07;2.22;;;22.30;74.80;;;;;;5014403;28;20477;-62
2023/07/29 01:43:29;;;;;;;3.20;2.13;;;22.30;74.80;;;;;;5014297;28;20038;-62
2023/07/29 01:45:55;;;;;;;3.30;2.00;;;22.30;74.80;;;;;;5014679;28;20477;-62
2023/07/29 01:48:20;;;;;;;4.10;2.10;;;22.30;74.80;;;;;;4997968;28;20092;-62
2023/07/29 01:50:46;;;;;;;3.08;2.15;;;22.30;74.80;;;;;;5015278;28;20069;-63
2023/07/29 01:53:12;;;;;;;3.92;2.22;;;22.30;74.80;;;;;;5015035;28;20452;-62
2023/07/29 01:55:38;;;;;;;4.38;2.05;;;22.30;74.80;;;;;;5014877;28;20050;-62
2023/07/29 01:58:04;;;;;;;3.58;2.35;;;22.30;74.80;;;;;;5015439;28;20046;-63
2023/07/29 02:00:29;;;;;;;3.78;2.00;;;22.30;74.80;;;;;;5013527;28;20038;-62
2023/07/29 02:02:55;;;;;;;2.78;2.10;;;22.30;74.80;;;;;;5013180;28;20057;-62
2023/07/29 02:05:21;;;;;;;4.03;1.98;;;22.30;74.70;;;;;;5013921;28;20124;-62
2023/07/29 02:07:46;;;;;;;3.05;2.20;;;22.30;74.80;;;;;;5014693;28;20769;-62
2023/07/29 02:10:12;;;;;;;3.95;2.00;;;22.30;74.80;;;;;;5013842;28;20042;-62
2023/07/29 02:12:37;;;;;;;3.10;1.88;;;22.30;74.70;;;;;;5012716;28;20077;-62
2023/07/29 02:15:04;;;;;;;2.85;1.90;;;22.30;74.70;;;;;;5015194;28;20087;-62
2023/07/29 02:17:30;;;;;;;3.03;2.10;;;22.30;74.70;;;;;;5015016;28;20095;-62
2023/07/29 02:19:56;;;;;;;2.88;2.10;;;22.30;74.70;;;;;;5014024;28;20405;-62
2023/07/29 02:22:21;;;;;;;3.15;1.95;;;22.30;74.70;;;;;;5014698;28;20493;-62
2023/07/29 02:24:47;;;;;;;3.28;2.05;;;22.30;74.70;;;;;;5013297;28;20046;-62
2023/07/29 02:27:13;;;;;;;3.33;2.22;;;22.30;74.70;;;;;;5014111;28;20092;-62
2023/07/29 02:29:38;;;;;;;3.30;2.22;;;22.30;74.70;;;;;;5014526;28;20037;-62
2023/07/29 02:32:04;;;;;;;3.65;2.33;;;22.30;74.70;;;;;;5014932;28;20038;-62
2023/07/29 02:34:30;;;;;;;3.47;2.10;;;22.30;74.70;;;;;;5012649;28;20045;-62
2023/07/29 02:36:55;;;;;;;3.25;2.20;;;22.30;74.70;;;;;;5012911;28;20489;-62
2023/07/29 02:39:21;;;;;;;4.13;2.20;;;22.30;74.60;;;;;;5014804;28;20041;-62
2023/07/29 02:41:47;;;;;;;3.13;2.00;;;22.30;74.70;;;;;;5011863;28;20121;-62
2023/07/29 02:44:12;;;;;;;3.13;2.03;;;22.30;74.60;;;;;;5013202;28;20133;-62
2023/07/29 02:46:39;;;;;;;2.38;2.10;;;22.30;74.60;;;;;;5014117;28;20116;-62
2023/07/29 02:49:05;;;;;;;3.38;2.42;;;22.20;74.50;;;;;;5013686;28;20053;-62
2023/07/29 02:51:30;;;;;;;3.33;2.22;;;22.20;74.60;;;;;;5014317;28;20046;-62
2023/07/29 02:53:56;;;;;;;3.28;1.92;;;22.20;74.50;;;;;;5014240;28;20048;-62
2023/07/29 02:56:22;;;;;;;2.42;1.77;;;22.20;74.50;;;;;;5013416;28;20130;-62
2023/07/29 02:58:47;;;;;;;2.35;1.70;;;22.20;74.50;;;;;;5014016;28;20114;-62
2023/07/29 03:01:13;;;;;;;4.43;2.03;;;22.20;74.50;;;;;;5013135;28;20099;-62
2023/07/29 03:03:39;;;;;;;2.58;1.80;;;22.30;74.60;;;;;;5012024;28;20045;-62
2023/07/29 03:06:10;;;;;;;3.35;2.00;;;22.20;74.50;;;;;;5014308;28;20107;-62
2023/07/29 03:08:36;;;;;;;2.83;1.90;;;22.20;74.50;;;;;;5013333;28;20122;-62
2023/07/29 03:11:10;;;;;;;2.75;1.88;;;22.20;74.50;;;;;;5013990;28;20416;-62
2023/07/29 03:13:35;;;;;;;3.35;1.90;;;22.20;74.50;;;;;;5012215;28;20080;-62
2023/07/29 03:16:07;;;;;;;3.22;2.03;;;22.20;74.50;;;;;;5012553;28;20076;-61
2023/07/29 03:18:33;;;;;;;4.40;2.20;;;22.20;74.40;;;;;;5014039;28;20061;-62
2023/07/29 03:20:58;;;;;;;2.63;1.83;;;22.20;74.40;;;;;;5012435;28;20474;-62
2023/07/29 03:23:24;;;;;;;3.30;2.15;;;22.20;74.40;;;;;;5012734;28;20046;-62
2023/07/29 03:25:51;;;;;;;2.72;2.00;;;22.20;74.40;;;;;;5013464;28;20042;-62
2023/07/29 03:28:17;;;;;;;4.07;2.00;;;22.20;74.40;;;;;;5013903;28;20054;-62
2023/07/29 03:30:42;;;;;;;2.10;1.52;;;22.20;74.40;;;;;;5012624;28;20045;-62
2023/07/29 03:33:08;;;;;;;2.83;1.80;;;22.20;74.50;;;;;;5013657;28;20081;-62
2023/07/29 03:35:33;;;;;;;3.55;2.33;;;22.20;74.40;;;;;;5012808;28;20042;-62
2023/07/29 03:37:59;;;;;;;2.88;2.13;;;22.20;74.40;;;;;;5012925;28;20042;-62
2023/07/29 03:40:24;;;;;;;2.60;1.67;;;22.20;74.40;;;;;;5012201;28;20052;-62
2023/07/29 03:42:50;;;;;;;2.60;1.98;;;22.20;74.40;;;;;;5012483;28;20148;-62
2023/07/29 03:45:16;;;;;;;2.67;1.80;;;22.20;74.30;;;;;;5012648;28;20049;-63
2023/07/29 03:47:41;;;;;;;3.40;2.00;;;22.20;74.30;;;;;;5013047;28;20465;-63
2023/07/29 03:50:07;;;;;;;4.10;2.10;;;22.20;74.30;;;;;;5013339;28;20125;-62
2023/07/29 03:52:33;;;;;;;3.38;2.03;;;22.20;74.30;;;;;;5012570;28;20042;-62
2023/07/29 03:54:58;;;;;;;3.13;2.25;;;22.20;74.30;;;;;;5013474;28;20070;-63
2023/07/29 03:57:24;;;;;;;3.13;1.90;;;22.20;74.30;;;;;;5013271;28;20436;-63
2023/07/29 03:59:50;;;;;;;2.47;1.95;;;22.20;74.30;;;;;;5012367;28;20049;-63
2023/07/29 04:02:15;;;;;;;2.72;1.75;;;22.20;74.30;;;;;;5028563;28;20090;-62
2023/07/29 04:04:42;;;;;;;2.75;2.00;;;22.20;74.20;;;;;;5030376;28;20037;-62
2023/07/29 04:07:08;;;;;;;2.50;1.60;;;22.20;74.30;;;;;;5011953;28;20046;-62
2023/07/29 04:09:33;;;;;;;3.10;1.92;;;22.20;74.30;;;;;;5011736;28;20095;-64
2023/07/29 04:11:59;;;;;;;2.63;1.95;;;22.20;74.30;;;;;;5010949;28;20044;-62
2023/07/29 04:14:24;;;;;;;2.67;1.85;;;22.10;74.30;;;;;;5013200;28;20044;-63
2023/07/29 04:16:50;;;;;;;2.88;1.80;;;22.10;74.20;;;;;;5012127;28;20065;-62
2023/07/29 04:19:15;;;;;;;2.60;1.70;;;22.10;74.20;;;;;;5010837;28;20524;-62
2023/07/29 04:21:41;;;;;;;3.03;2.13;;;22.10;74.20;;;;;;5012291;28;20104;-62
2023/07/29 04:24:07;;;;;;;2.88;2.08;;;22.10;74.20;;;;;;5013113;28;20046;-63
2023/07/29 04:26:32;;;;;;;2.35;1.70;;;22.10;74.20;;;;;;5012290;28;20046;-62
2023/07/29 04:28:58;;;;;;;3.28;1.90;;;22.20;74.30;;;;;;5027663;28;20046;-62
2023/07/29 04:31:24;;;;;;;3.08;1.88;;;22.20;74.20;;;;;;5012654;28;20038;-62
2023/07/29 04:33:49;;;;;;;2.67;1.90;;;22.10;74.20;;;;;;5011445;28;20038;-62
2023/07/29 04:36:15;;;;;;;3.08;1.80;;;22.10;74.20;;;;;;5012485;28;20084;-63
2023/07/29 04:38:40;;;;;;;2.70;1.80;;;22.10;74.10;;;;;;5010800;28;20060;-62
2023/07/29 04:41:08;;;;;;;2.25;1.52;;;22.10;74.10;;;;;;5023396;28;20041;-63
2023/07/29 04:43:34;;;;;;;3.20;1.75;;;22.10;74.10;;;;;;5031394;28;20045;-63
2023/07/29 04:45:59;;;;;;;3.00;1.90;;;22.10;74.10;;;;;;5031624;28;20056;-63
2023/07/29 04:48:25;;;;;;;2.97;1.52;;;22.10;74.20;;;;;;5031681;28;20042;-63
2023/07/29 04:50:51;;;;;;;2.58;1.80;;;22.10;74.10;;;;;;5029553;28;20484;-63
2023/07/29 04:53:16;;;;;;;3.00;2.00;;;22.10;74.10;;;;;;5032441;28;20064;-62
2023/07/29 04:55:45;;;;;;;2.80;1.92;;;22.10;74.10;;;;;;5027268;28;20392;-63
2023/07/29 04:58:11;;;;;;;3.72;2.00;;;22.10;74.10;;;;;;5012836;28;20053;-63
2023/07/29 05:00:36;;;;;;;2.58;1.60;;;22.10;74.10;;;;;;5012475;28;20050;-62
2023/07/29 05:03:02;;;;;;;3.15;1.83;;;22.10;74.10;;;;;;5010587;28;20042;-62
2023/07/29 05:05:27;;;;;;;2.40;1.50;;;22.10;74.10;;;;;;5012335;28;20050;-63
2023/07/29 05:07:53;;;;;;;3.38;1.75;;;22.10;74.00;;;;;;5012410;28;20050;-62
2023/07/29 05:10:19;;;;;;;3.10;1.70;;;22.10;74.00;;;;;;5012036;28;20097;-62
2023/07/29 05:12:44;;;;;;;2.70;1.70;;;22.10;74.00;;;;;;5030511;28;20107;-62
2023/07/29 05:15:10;;;;;;;2.13;1.50;;;22.10;74.00;;;;;;5031618;28;20048;-62
2023/07/29 05:17:36;;;;;;;2.03;1.52;;;22.10;74.00;;;;;;5031452;28;20393;-62
2023/07/29 05:20:01;;;;;;;3.03;1.95;;;22.10;74.00;;;;;;5031876;28;20112;-62
2023/07/29 05:22:27;;;;;;;3.08;1.52;;;22.10;74.00;;;;;;5012941;28;20050;-62
2023/07/29 05:24:52;;;;;;;3.25;1.73;;;22.10;74.00;;;;;;5011946;28;20073;-62
2023/07/29 05:27:18;;;;;;;3.03;1.67;;;22.10;74.00;;;;;;5011092;28;20049;-62
2023/07/29 05:29:44;;;;;;;2.30;1.80;;;22.10;74.00;;;;;;5011019;28;20050;-62
2023/07/29 05:32:09;;;;;;;2.38;1.50;;;22.10;74.00;;;;;;5025866;28;20041;-62
2023/07/29 05:34:35;;;;;;;2.65;1.50;;;22.00;74.00;;;;;;5030186;28;20052;-62
2023/07/29 05:37:00;;;;;;;2.30;1.55;;;22.00;73.90;;;;;;5028886;28;20049;-62
2023/07/29 05:39:26;;;;;;;2.45;1.60;;;22.10;74.00;;;;;;5034321;28;20053;-62
2023/07/29 05:41:51;;;;;;;2.35;1.50;;;22.10;74.00;;;;;;5024232;28;20133;-62
2023/07/29 05:44:17;;;;;;;2.40;1.45;;;22.00;73.90;;;;;;5014433;28;20377;-62
2023/07/29 05:46:42;;;;;;;2.28;1.65;;;22.10;74.00;;;;;;5023130;28;20195;-63
2023/07/29 05:49:08;;;;;;;3.00;1.65;;;22.00;74.00;;;;;;5034308;28;20040;-64
2023/07/29 05:51:34;;;;;;;2.10;1.40;;;22.10;74.10;;;;;;5033909;28;20049;-64
2023/07/29 05:53:59;;;;;;;2.22;1.45;;;22.00;74.00;;;;;;5028614;28;20389;-64
2023/07/29 05:56:25;;;;;;;3.03;1.50;;;22.00;74.00;;;;;;5015572;28;20046;-64
2023/07/29 05:58:50;;;;;;;3.80;1.52;;;22.10;74.10;;;;;;5014448;28;20041;-64
2023/07/29 06:01:16;;;;;;;2.75;1.70;;;22.10;74.20;;;;;;5014964;28;20468;-64
2023/07/29 06:03:41;;;;;;;1.90;1.35;;;22.10;74.20;;;;;;5015057;28;20038;-63
2023/07/29 06:06:07;;;;;;;2.92;1.33;;;22.10;74.20;;;;;;5014060;28;20548;-62
2023/07/29 06:08:34;;;;;;;3.72;1.42;;;22.00;74.20;;;;;;5015360;28;20038;-62
2023/07/29 06:11:00;;;;;;;4.07;1.40;;;22.10;74.20;;;;;;5014056;28;20053;-62
2023/07/29 06:13:25;;;;;;;3.35;1.80;;;22.10;74.20;;;;;;5014373;28;20104;-64
2023/07/29 06:15:51;;;;;;;3.63;1.70;;;22.10;74.20;;;;;;5014247;28;20042;-64
2023/07/29 06:18:17;;;;;;;3.47;1.70;;;22.10;74.20;;;;;;5014917;28;20128;-64
2023/07/29 06:20:42;;;;;;;2.72;1.70;;;22.10;74.30;;;;;;5013949;28;20041;-64
2023/07/29 06:23:08;;;;;;;3.05;1.42;;;22.00;74.20;;;;;;5032846;28;20097;-64
2023/07/29 06:25:33;;;;;;;2.47;1.60;;;22.10;74.20;;;;;;5033654;28;20485;-64
2023/07/29 06:27:59;;;;;;;3.88;1.75;;;22.10;74.30;;;;;;5034222;28;20559;-64
2023/07/29 06:30:25;;;;;;;5.28;1.42;;;22.10;74.30;;;;;;5034586;28;20041;-64
2023/07/29 06:32:50;;;;;;;2.50;1.40;;;22.10;74.30;;;;;;5032890;28;20061;-64
2023/07/29 06:35:16;;;;;;;4.50;1.60;;;22.10;74.30;;;;;;5032958;28;20050;-63
2023/07/29 06:37:41;;;;;;;7.10;2.85;;;22.10;74.40;;;;;;5032285;28;20052;-64
2023/07/29 06:40:08;;;;;;;7.53;2.33;;;22.10;74.50;;;;;;5033429;28;20041;-63
2023/07/29 06:42:33;;;;;;;6.85;2.20;;;22.20;74.70;;;;;;5034144;28;20124;-63
2023/07/29 06:44:59;;;;;;;5.95;2.00;;;22.20;74.70;;;;;;5033539;28;20117;-64
2023/07/29 06:47:24;;;;;;;4.55;1.83;;;22.20;74.70;;;;;;5033431;28;20095;-64
2023/07/29 06:49:50;;;;;;;4.45;1.85;;;22.20;74.70;;;;;;5032173;28;20124;-64
2023/07/29 06:52:15;;;;;;;5.18;2.33;;;22.20;74.70;;;;;;5034021;28;20037;-64
2023/07/29 06:54:41;;;;;;;3.03;1.63;;;22.20;74.70;;;;;;5033149;28;20175;-64
2023/07/29 06:57:07;;;;;;;3.72;2.03;;;22.30;74.80;;;;;;5033782;28;20084;-65
2023/07/29 06:59:32;;;;;;;3.70;2.33;;;22.20;74.70;;;;;;5033815;28;20449;-64
2023/07/29 07:01:59;;;;;;;4.38;2.03;;;22.30;74.80;;;;;;5032767;28;20039;-64
2023/07/29 07:04:25;;;;;;;4.97;2.00;;;22.30;74.70;;;;;;5030608;28;20492;-64
2023/07/29 07:06:51;;;;;;;5.28;1.98;;;22.30;74.70;;;;;;5013971;28;20038;-64
2023/07/29 07:09:16;;;;;;;3.80;1.70;;;22.30;74.70;;;;;;5029376;28;20069;-64
2023/07/29 07:11:42;;;;;;;5.68;2.40;;;22.30;74.60;;;;;;5033158;28;20045;-65
2023/07/29 07:14:07;;;;;;;4.53;1.75;;;22.30;74.60;;;;;;5033560;28;20050;-65
2023/07/29 07:16:35;;;;;;;5.00;1.63;;;22.30;74.70;;;;;;5032773;28;20473;-66
2023/07/29 07:19:00;;;;;;;6.35;1.95;;;22.30;74.70;;;;;;5033429;28;20049;-65
2023/07/29 07:21:26;;;;;;;4.13;1.90;;;22.30;74.70;;;;;;5031894;28;20048;-66
2023/07/29 07:23:52;;;;;;;5.07;1.95;;;22.40;74.70;;;;;;5031138;28;20382;-65
2023/07/29 07:26:17;;;;;;;3.78;2.00;;;22.30;74.70;;;;;;5032085;28;20045;-65
2023/07/29 07:28:43;;;;;;;3.67;1.92;;;22.40;74.70;;;;;;5032517;28;20040;-66
2023/07/29 07:31:08;;;;;;;3.67;1.70;;;22.40;74.70;;;;;;5033210;28;20091;-65
2023/07/29 07:33:34;;;;;;;4.35;2.00;;;22.40;74.70;;;;;;5032706;28;20034;-65
2023/07/29 07:36:00;;;;;;;5.90;1.70;;;22.40;74.70;;;;;;5032423;28;20442;-65
2023/07/29 07:38:25;;;;;;;5.47;1.85;;;22.40;74.70;;;;;;5031573;28;20507;-65
2023/07/29 07:40:55;;;;;;;6.75;1.60;;;22.50;74.70;;;;;;5033161;28;20073;-65
2023/07/29 07:43:20;;;;;;;5.00;1.70;;;22.50;74.70;;;;;;5031924;28;20045;-65
2023/07/29 07:45:46;;;;;;;3.72;1.83;;;22.50;74.60;;;;;;5031656;28;20455;-65
2023/07/29 07:48:13;;;;;;;5.90;1.90;;;22.50;74.60;;;;;;5029244;28;20373;-65
2023/07/29 07:50:39;;;;;;;4.60;1.80;;;22.50;74.60;;;;;;5032022;28;20076;-66
2023/07/29 07:53:04;;;;;;;3.65;2.00;;;22.50;74.50;;;;;;5019074;28;20478;-66
2023/07/29 07:55:30;;;;;;;3.83;1.60;;;22.50;74.60;;;;;;5011839;28;20525;-65
2023/07/29 07:57:55;;;;;;;4.07;1.63;;;22.50;74.50;;;;;;5011981;28;20049;-65
2023/07/29 08:00:21;;;;;;;5.05;1.70;;;22.50;74.40;;;;;;5010460;28;20041;-65
2023/07/29 08:02:47;;;;;;;4.78;1.60;;;22.50;74.40;;;;;;5012311;28;20053;-64
2023/07/29 08:05:12;;;;;;;3.50;1.88;;;22.50;74.40;;;;;;5011981;28;20038;-63
2023/07/29 08:07:38;;;;;;;3.08;1.60;;;22.50;74.40;;;;;;5012852;28;20037;-64
2023/07/29 08:10:04;;;;;;;6.22;1.85;;;22.50;74.30;;;;;;5013343;28;20379;-64
2023/07/29 08:12:29;;;;;;;4.80;1.70;;;22.50;74.10;;;;;;5012647;28;20117;-65
2023/07/29 08:14:55;;;;;;;4.97;1.90;;;22.50;74.10;;;;;;5011567;28;20194;-64
2023/07/29 08:17:20;;;;;;;5.15;1.80;;;22.50;74.00;;;;;;5012914;28;20045;-64
2023/07/29 08:19:46;;;;;;;5.88;1.60;;;22.50;73.90;;;;;;5012240;28;20048;-64
2023/07/29 08:22:11;;;;;;;3.22;1.55;;;22.50;73.80;;;;;;5012988;28;20052;-64
2023/07/29 08:24:37;;;;;;;4.63;2.00;;;22.50;73.70;;;;;;5011390;28;20088;-64
2023/07/29 08:27:03;;;;;;;5.82;1.75;;;22.50;73.70;;;;;;5012196;28;20052;-64
2023/07/29 08:29:28;;;;;;;3.30;1.52;;;22.50;73.60;;;;;;5012932;28;20046;-64
2023/07/29 08:31:55;;;;;;;5.38;1.83;;;22.50;73.60;;;;;;5012470;28;20042;-64
2023/07/29 08:34:20;;;;;;;5.97;1.55;;;22.50;73.50;;;;;;5010845;28;20092;-64
2023/07/29 08:36:46;;;;;;;5.03;1.70;;;22.50;73.60;;;;;;5012540;28;20049;-64
2023/07/29 08:39:11;;;;;;;4.97;1.70;;;22.50;73.60;;;;;;5011089;28;20080;-62
2023/07/29 08:41:41;;;;;;;5.35;1.58;;;22.50;73.60;;;;;;5012112;28;20044;-63
2023/07/29 08:44:11;;;;;;;7.40;1.80;;;22.50;73.60;;;;;;4995190;28;20077;-64
2023/07/29 08:46:38;;;;;;;5.07;1.85;;;22.50;73.70;;;;;;5011963;28;20493;-64
2023/07/29 08:49:03;;;;;;;6.82;2.22;;;22.50;73.70;;;;;;5012786;28;20077;-64
2023/07/29 08:51:29;;;;;;;10.32;2.75;;;22.50;73.70;;;;;;5011575;28;20077;-65
2023/07/29 08:53:55;;;;;;;10.55;3.10;;;22.50;73.80;;;;;;5010499;28;20104;-63
2023/07/29 08:56:20;;;;;;;11.77;3.13;;;22.60;73.90;;;;;;5011652;28;20501;-65
2023/07/29 08:58:46;;;;;;;14.48;3.10;;;22.60;74.00;;;;;;5009608;28;20056;-65
2023/07/29 09:01:12;;;;;;;9.38;3.35;;;22.60;74.00;;;;;;5012018;28;20080;-64
2023/07/29 09:03:37;;;;;;;10.60;3.47;;;22.60;74.10;;;;;;5013499;28;20045;-63
2023/07/29 09:06:03;;;;;;;12.57;3.60;;;22.60;74.00;;;;;;5031261;28;20060;-65
2023/07/29 09:08:29;;;;;;;11.05;3.90;;;22.60;74.00;;;;;;5015537;28;20477;-64
2023/07/29 09:10:58;;;;;;;20.63;3.72;;;22.60;74.00;;;;;;5012090;28;20042;-65
2023/07/29 09:13:23;;;;;;;11.35;3.75;;;22.70;74.10;;;;;;5011177;28;20493;-64
2023/07/29 09:15:49;;;;;;;11.32;3.78;;;22.70;74.20;;;;;;5012578;28;20057;-64
2023/07/29 09:18:16;;;;;;;11.77;3.33;;;22.70;74.20;;;;;;5016411;28;20073;-65
2023/07/29 09:20:41;;;;;;;9.68;3.58;;;22.70;74.10;;;;;;5015994;28;20042;-64
2023/07/29 09:23:09;;;;;;;11.48;4.28;;;22.70;74.00;;;;;;4997588;28;20417;-64
2023/07/29 09:25:34;;;;;;;12.10;3.83;;;22.80;74.20;;;;;;5015520;28;20405;-63
2023/07/29 09:28:00;;;;;;;12.18;3.78;;;22.80;74.30;;;;;;5015809;28;20037;-63
2023/07/29 09:30:26;;;;;;;11.23;3.83;;;22.80;74.40;;;;;;5022866;28;20049;-64
2023/07/29 09:32:56;;;;;;;11.43;3.60;;;22.80;74.40;;;;;;5035428;28;20124;-64
2023/07/29 09:35:21;;;;;;;10.60;3.72;;;22.90;74.50;;;;;;5035098;28;20041;-64
2023/07/29 09:37:47;;;;;;;10.70;3.70;;;22.90;74.40;;;;;;5035487;28;20473;-65
2023/07/29 09:40:16;;;;;;;7.93;3.45;;;22.90;74.40;;;;;;5035417;28;20386;-64
2023/07/29 09:42:49;;;;;;;9.93;3.20;;;22.90;75.00;;;;;;5033218;28;20382;-64
2023/07/29 09:45:19;;;;;;;12.20;3.30;;;22.90;74.40;;;;;;5034332;28;20049;-64
2023/07/29 09:47:46;;;;;;;10.65;3.55;;;22.90;74.40;;;;;;5034116;28;20049;-64
2023/07/29 09:50:11;;;;;;;9.88;3.28;;;22.90;74.20;;;;;;5034696;28;20151;-64
2023/07/29 09:52:37;;;;;;;8.82;3.45;;;22.90;74.10;;;;;;5035245;28;20145;-64
2023/07/29 09:55:03;;;;;;;11.02;3.40;;;22.90;74.00;;;;;;5035286;28;20049;-64
2023/07/29 09:57:29;;;;;;;9.07;2.95;;;22.90;73.90;;;;;;5033269;28;20052;-64
2023/07/29 09:59:55;;;;;;;8.18;2.78;;;23.00;73.90;;;;;;5033967;28;20037;-64
2023/07/29 10:02:21;;;;;;;10.52;3.10;;;23.00;73.90;;;;;;5035548;28;20068;-63
2023/07/29 10:04:46;;;;;;;10.07;2.88;;;23.00;73.80;;;;;;5032714;28;20428;-64
2023/07/29 10:07:12;;;;;;;7.60;2.50;;;23.00;73.70;;;;;;5033743;28;20057;-64
2023/07/29 10:09:39;;;;;;;11.98;2.95;;;23.00;73.80;;;;;;5034198;28;20037;-64
2023/07/29 10:12:08;;;;;;;8.43;3.13;;;23.00;73.80;;;;;;5034456;28;20041;-71
2023/07/29 10:14:33;;;;;;;7.05;3.05;;;23.00;73.80;;;;;;5016837;28;20037;-65
2023/07/29 10:17:00;;;;;;;8.98;2.83;;;23.00;73.70;;;;;;5034650;28;20045;-62
2023/07/29 10:19:26;;;;;;;6.45;2.30;;;23.00;73.70;;;;;;5032687;28;20124;-62
2023/07/29 10:21:52;;;;;;;9.82;2.90;;;23.00;73.60;;;;;;5034305;28;20088;-63
2023/07/29 10:24:20;;;;;;;7.93;2.42;;;23.00;73.60;;;;;;5033149;28;20089;-65
2023/07/29 10:26:46;;;;;;;12.57;2.65;;;23.10;73.60;;;;;;5034016;28;20107;-64
2023/07/29 10:29:12;;;;;;;9.75;2.85;;;23.00;73.60;;;;;;5034774;28;20116;-64
2023/07/29 10:31:39;;;;;;;7.43;2.33;;;23.10;73.60;;;;;;5015992;28;20442;-65
2023/07/29 10:34:04;;;;;;;8.18;2.80;;;23.10;73.60;;;;;;5033605;28;20507;-64
2023/07/29 10:36:30;;;;;;;8.32;2.38;;;23.10;73.60;;;;;;5033489;28;20038;-63
2023/07/29 10:38:56;;;;;;;6.25;2.50;;;23.10;73.60;;;;;;5032373;28;20049;-65
2023/07/29 10:41:21;;;;;;;10.63;2.38;;;23.10;73.60;;;;;;5016244;28;20122;-63
2023/07/29 10:43:47;;;;;;;6.25;2.28;;;23.10;73.50;;;;;;5032056;28;20605;-64
2023/07/29 10:46:19;;;;;;;9.27;2.75;;;23.10;73.50;;;;;;5032741;28;20046;-64
2023/07/29 10:48:51;;;;;;;8.48;2.20;;;23.10;73.50;;;;;;5034156;28;20156;-64
2023/07/29 10:51:30;;;;;;;8.60;2.10;;;23.10;73.30;;;;;;5032550;28;20053;-64
2023/07/29 10:53:56;;;;;;;5.22;2.17;;;23.10;73.30;;;;;;5033463;28;20049;-64
2023/07/29 10:56:29;;;;;;;7.53;2.90;;;23.10;73.30;;;;;;5032786;28;20046;-64
2023/07/29 10:58:57;;;;;;;6.45;2.58;;;23.10;73.20;;;;;;5033944;28;20524;-64
2023/07/29 11:01:32;;;;;;;6.97;2.30;;;23.10;73.20;;;;;;5032396;28;20493;-64
2023/07/29 11:04:24;;;;;;;7.03;2.33;;;23.20;73.20;;;;;;5032690;28;20064;-64
2023/07/29 11:07:02;;;;;;;6.20;2.00;;;23.20;73.20;;;;;;5024979;28;20483;-63
2023/07/29 11:09:43;;;;;;;6.28;2.50;;;23.10;73.10;;;;;;5033569;28;20542;-64
2023/07/29 11:12:34;;;;;;;7.85;2.50;;;23.20;73.10;;;;;;5032516;28;20564;-64
2023/07/29 11:15:24;;;;;;;3.33;1.95;;;23.20;73.10;;;;;;5033332;28;20129;-64
2023/07/29 11:17:54;;;;;;;6.05;2.50;;;23.20;73.00;;;;;;5032251;28;20398;-63
2023/07/29 11:20:25;;;;;;;5.15;1.90;;;23.20;73.00;;;;;;5033738;28;20045;-63
2023/07/29 11:22:55;;;;;;;5.13;2.42;;;23.20;73.00;;;;;;5032441;28;20492;-64
2023/07/29 11:25:21;;;;;;;5.70;2.05;;;23.20;73.00;;;;;;5034173;28;20393;-64
2023/07/29 11:27:47;;;;;;;4.93;2.10;;;23.20;73.00;;;;;;5033327;28;20045;-63
2023/07/29 11:30:14;;;;;;;6.82;2.20;;;23.20;73.00;;;;;;5033188;28;20133;-64
2023/07/29 11:32:46;;;;;;;4.07;2.13;;;23.20;72.80;;;;;;5033565;28;20037;-64
2023/07/29 11:35:17;;;;;;;4.80;2.38;;;23.20;72.80;;;;;;5031420;28;20112;-64
2023/07/29 11:37:44;;;;;;;5.03;2.10;;;23.20;72.70;;;;;;5032804;28;20046;-64
2023/07/29 11:40:13;;;;;;;5.60;2.00;;;23.20;72.70;;;;;;5032356;28;20053;-63
2023/07/29 11:42:38;;;;;;;4.78;1.85;;;23.20;72.70;;;;;;5032201;28;20052;-63
2023/07/29 11:45:06;;;;;;;7.00;2.08;;;23.30;72.70;;;;;;5015529;28;20041;-64
2023/07/29 11:47:35;;;;;;;5.18;2.00;;;23.20;72.60;;;;;;5031980;28;20037;-64
2023/07/29 11:50:01;;;;;;;5.22;1.90;;;23.20;72.60;;;;;;5032495;28;20054;-64
2023/07/29 11:52:27;;;;;;;5.63;2.20;;;23.20;72.60;;;;;;5033373;28;20038;-64
2023/07/29 11:54:53;;;;;;;5.22;2.13;;;23.20;72.50;;;;;;5031844;28;20098;-64
2023/07/29 11:57:18;;;;;;;5.10;2.40;;;23.20;72.50;;;;;;5030814;28;20439;-64
2023/07/29 11:59:44;;;;;;;5.63;2.20;;;23.20;72.50;;;;;;5032713;28;20041;-64
2023/07/29 12:02:15;;;;;;;5.03;2.33;;;23.20;72.60;;;;;;5031897;28;20041;-63
2023/07/29 12:04:40;;;;;;;3.60;2.03;;;23.20;72.60;;;;;;5030831;28;20049;-64
2023/07/29 12:07:06;;;;;;;3.90;1.92;;;23.20;72.60;;;;;;5015116;28;20045;-64
2023/07/29 12:09:38;;;;;;;7.38;2.08;;;23.10;72.50;;;;;;5031771;28;20044;-63
2023/07/29 12:12:06;;;;;;;5.30;2.20;;;23.10;72.50;;;;;;5015692;28;20092;-64
2023/07/29 12:14:32;;;;;;;4.57;2.25;;;23.10;72.50;;;;;;5032918;28;20065;-64
2023/07/29 12:17:02;;;;;;;4.07;2.13;;;23.20;72.50;;;;;;5032305;28;20049;-64
2023/07/29 12:19:35;;;;;;;6.05;2.40;;;23.20;72.50;;;;;;5032647;28;20570;-64
2023/07/29 12:22:07;;;;;;;5.28;2.40;;;23.20;72.40;;;;;;5031381;28;20053;-64
2023/07/29 12:24:33;;;;;;;4.40;2.30;;;23.20;72.40;;;;;;5031029;28;20060;-63
2023/07/29 12:26:59;;;;;;;6.30;2.42;;;23.20;72.40;;;;;;5032700;28;20044;-63
2023/07/29 12:29:25;;;;;;;4.50;2.42;;;23.20;72.40;;;;;;5032663;28;20049;-63
2023/07/29 12:31:58;;;;;;;3.45;2.45;;;23.20;72.40;;;;;;5031712;28;20038;-64
2023/07/29 12:34:25;;;;;;;6.80;2.42;;;23.20;72.40;;;;;;5032882;28;20048;-63
2023/07/29 12:36:51;;;;;;;4.78;2.30;;;23.20;72.30;;;;;;5031130;28;20048;-63
2023/07/29 12:39:21;;;;;;;4.00;2.17;;;23.20;72.30;;;;;;5032052;28;20046;-64
2023/07/29 12:41:51;;;;;;;5.15;2.40;;;23.20;72.30;;;;;;5030924;28;20515;-64
2023/07/29 12:44:17;;;;;;;4.50;2.33;;;23.20;72.30;;;;;;5031500;28;20076;-64